Time;durP1;ratioP1;P1;durP2;ratioP2;P2;SDS_P1;SDS_P2;PMS_P1;PMS_P2;Temp;Humidity;BMP_temperature;BMP_pressure;BME280_temperature;BME280_humidity;BME280_pressure;Samples;Min_cycle;Max_cycle;Signal;HPM_P1;HPM_P2
2022/04/01 00:00:50;;;;;;;4.57;3.10;;;;;;;;;;5088000;28;20228;-34
2022/04/01 00:03:17;;;;;;;3.30;3.00;;;;;;;;;;5090826;28;20228;-33
2022/04/01 00:05:44;;;;;;;3.17;2.70;;;;;;;;;;5088835;28;20805;-35
2022/04/01 00:08:12;;;;;;;3.40;2.93;;;;;;;;;;5081890;28;20248;-34
2022/04/01 00:10:39;;;;;;;3.73;2.83;;;;;;;;;;5090748;28;20208;-32
2022/04/01 00:13:08;;;;;;;3.27;2.70;;;;;;;;;;5090966;28;20239;-34
2022/04/01 00:15:35;;;;;;;3.40;2.93;;;;;;;;;;5084769;28;20251;-30
2022/04/01 00:18:04;;;;;;;3.50;3.10;;;;;;;;;;5087236;28;20274;-38
2022/04/01 00:20:32;;;;;;;4.97;3.40;;;;;;;;;;5091312;28;20221;-31
2022/04/01 00:22:59;;;;;;;3.77;3.07;;;;;;;;;;5083177;28;20209;-32
2022/04/01 00:25:27;;;;;;;4.87;3.20;;;;;;;;;;5081699;28;20220;-33
2022/04/01 00:27:54;;;;;;;3.80;3.30;;;;;;;;;;5090487;28;20213;-34
2022/04/01 00:30:23;;;;;;;3.93;2.90;;;;;;;;;;5090940;28;20205;-33
2022/04/01 00:32:50;;;;;;;3.60;2.57;;;;;;;;;;5082167;28;20205;-31
2022/04/01 00:35:18;;;;;;;3.27;2.90;;;;;;;;;;5089761;28;20224;-28
2022/04/01 00:37:45;;;;;;;4.03;2.90;;;;;;;;;;5090090;28;20205;-30
2022/04/01 00:40:12;;;;;;;4.10;3.30;;;;;;;;;;5086082;28;20220;-33
2022/04/01 00:42:41;;;;;;;4.87;3.37;;;;;;;;;;5082108;28;20291;-37
2022/04/01 00:45:10;;;;;;;3.90;3.60;;;;;;;;;;5090022;28;20219;-34
2022/04/01 00:47:38;;;;;;;3.53;2.90;;;;;;;;;;5090135;28;20321;-30
2022/04/01 00:50:07;;;;;;;3.23;2.67;;;;;;;;;;5085232;28;20200;-35
2022/04/01 00:52:34;;;;;;;3.73;2.93;;;;;;;;;;5085687;28;20207;-33
2022/04/01 00:55:02;;;;;;;3.10;2.80;;;;;;;;;;5089610;28;20230;-31
2022/04/01 00:57:30;;;;;;;2.23;2.03;;;;;;;;;;5090181;28;20223;-36
2022/04/01 00:59:58;;;;;;;3.37;3.07;;;;;;;;;;5083830;28;20212;-32
2022/04/01 01:02:25;;;;;;;2.80;2.60;;;;;;;;;;5080052;28;20286;-31
2022/04/01 01:04:53;;;;;;;3.03;2.43;;;;;;;;;;5085680;28;20251;-33
2022/04/01 01:07:21;;;;;;;4.10;2.73;;;;;;;;;;5089673;28;20259;-34
2022/04/01 01:09:49;;;;;;;4.30;3.00;;;;;;;;;;5074639;28;20245;-30
2022/04/01 01:12:17;;;;;;;3.53;2.90;;;;;;;;;;5089295;28;20201;-30
2022/04/01 01:14:44;;;;;;;3.30;2.80;;;;;;;;;;5089427;28;20287;-35
2022/04/01 01:17:14;;;;;;;4.67;3.77;;;;;;;;;;5089732;28;20288;-28
2022/04/01 01:19:42;;;;;;;4.40;2.93;;;;;;;;;;5078145;28;20215;-32
2022/04/01 01:22:12;;;;;;;3.40;2.80;;;;;;;;;;5089575;28;20200;-36
2022/04/01 01:24:42;;;;;;;3.27;2.70;;;;;;;;;;5089385;28;20209;-32
2022/04/01 01:27:10;;;;;;;3.77;3.13;;;;;;;;;;5085008;28;20207;-32
2022/04/01 01:29:39;;;;;;;5.57;3.30;;;;;;;;;;5084193;28;20228;-33
2022/04/01 01:32:09;;;;;;;2.97;2.67;;;;;;;;;;5089827;28;20971;-29
2022/04/01 01:34:36;;;;;;;4.07;2.93;;;;;;;;;;5082317;28;20205;-35
2022/04/01 01:37:04;;;;;;;2.70;2.50;;;;;;;;;;5077376;28;20205;-30
2022/04/01 01:39:32;;;;;;;3.67;2.93;;;;;;;;;;5089553;28;20192;-33
2022/04/01 01:42:01;;;;;;;3.90;3.10;;;;;;;;;;5089452;28;20208;-36
2022/04/01 01:44:29;;;;;;;3.30;2.90;;;;;;;;;;5074130;28;20204;-30
2022/04/01 01:46:57;;;;;;;2.50;2.30;;;;;;;;;;5088255;28;20205;-33
2022/04/01 01:49:24;;;;;;;2.70;2.43;;;;;;;;;;5093431;28;20204;-31
2022/04/01 01:54:50;;;;;;;3.50;3.07;;;;;;;;;;5092074;28;20210;-36
2022/04/01 01:57:20;;;;;;;2.30;2.10;;;;;;;;;;5093987;28;20198;-32
2022/04/01 01:59:48;;;;;;;3.33;2.83;;;;;;;;;;5093188;28;20205;-37
2022/04/01 02:02:15;;;;;;;3.13;2.83;;;;;;;;;;5082344;28;20283;-32
2022/04/01 02:04:43;;;;;;;2.90;2.57;;;;;;;;;;5092007;28;20193;-28
2022/04/01 02:07:11;;;;;;;2.80;2.60;;;;;;;;;;5092944;28;20205;-30
2022/04/01 02:09:40;;;;;;;3.27;2.47;;;;;;;;;;5082972;28;20292;-29
2022/04/01 02:12:08;;;;;;;2.30;2.10;;;;;;;;;;5092293;28;20205;-32
2022/04/01 02:14:36;;;;;;;3.53;2.70;;;;;;;;;;5092332;28;20192;-30
2022/04/01 02:17:04;;;;;;;3.10;2.80;;;;;;;;;;5087793;28;20248;-33
2022/04/01 02:19:31;;;;;;;2.97;2.60;;;;;;;;;;5085797;28;20262;-33
2022/04/01 02:21:59;;;;;;;3.40;2.90;;;;;;;;;;5092307;28;20204;-37
2022/04/01 02:24:27;;;;;;;2.90;2.60;;;;;;;;;;5089953;28;20209;-36
2022/04/01 02:26:55;;;;;;;2.57;2.37;;;;;;;;;;5087271;28;20202;-31
2022/04/01 02:29:23;;;;;;;4.03;2.80;;;;;;;;;;5092601;28;20299;-29
2022/04/01 02:31:52;;;;;;;2.37;2.17;;;;;;;;;;5092937;28;20200;-28
2022/04/01 02:34:19;;;;;;;3.60;3.00;;;;;;;;;;5076260;28;20266;-31
2022/04/01 02:36:47;;;;;;;3.37;2.67;;;;;;;;;;5089474;28;20251;-31
2022/04/01 02:39:14;;;;;;;3.70;3.13;;;;;;;;;;5092435;28;20289;-27
2022/04/01 02:41:41;;;;;;;3.33;3.03;;;;;;;;;;5092662;28;20444;-35
2022/04/01 02:44:09;;;;;;;3.07;2.60;;;;;;;;;;5077077;28;20292;-30
2022/04/01 02:46:37;;;;;;;4.37;3.30;;;;;;;;;;5091883;28;20475;-30
2022/04/01 02:49:06;;;;;;;4.17;3.73;;;;;;;;;;5092478;28;20213;-31
2022/04/01 02:51:36;;;;;;;4.00;3.27;;;;;;;;;;5088223;28;20571;-32
2022/04/01 02:54:03;;;;;;;3.90;3.13;;;;;;;;;;5082236;28;20207;-29
2022/04/01 02:56:31;;;;;;;4.27;3.10;;;;;;;;;;5091390;28;20230;-31
2022/04/01 02:58:59;;;;;;;3.37;3.07;;;;;;;;;;5091874;28;20210;-29
2022/04/01 03:01:26;;;;;;;3.27;2.97;;;;;;;;;;5082064;28;20197;-34
2022/04/01 03:03:53;;;;;;;3.13;2.83;;;;;;;;;;5090295;28;20209;-35
2022/04/01 03:06:22;;;;;;;3.67;2.80;;;;;;;;;;5092119;28;20256;-30
2022/04/01 03:08:50;;;;;;;3.77;3.20;;;;;;;;;;5086831;28;20212;-36
2022/04/01 03:11:17;;;;;;;4.17;3.37;;;;;;;;;;5086366;28;20227;-32
2022/04/01 03:13:45;;;;;;;3.43;2.80;;;;;;;;;;5091422;28;20207;-32
2022/04/01 03:16:13;;;;;;;4.03;3.10;;;;;;;;;;5091692;28;20225;-26
2022/04/01 03:18:41;;;;;;;5.00;3.10;;;;;;;;;;5082915;28;20206;-37
2022/04/01 03:21:09;;;;;;;3.27;2.77;;;;;;;;;;5086178;28;20265;-33
2022/04/01 03:23:39;;;;;;;3.00;2.80;;;;;;;;;;5091079;28;20200;-32
2022/04/01 03:26:06;;;;;;;4.33;3.20;;;;;;;;;;5092099;28;20319;-31
2022/04/01 03:28:34;;;;;;;3.83;3.10;;;;;;;;;;5078383;28;20229;-33
2022/04/01 03:31:03;;;;;;;3.27;2.60;;;;;;;;;;5082315;28;20227;-33
2022/04/01 03:33:32;;;;;;;3.00;2.70;;;;;;;;;;5091021;28;20200;-30
2022/04/01 03:35:59;;;;;;;3.43;2.77;;;;;;;;;;5088962;28;20304;-35
2022/04/01 03:38:26;;;;;;;3.60;3.30;;;;;;;;;;5080971;28;20197;-30
2022/04/01 03:40:56;;;;;;;4.43;2.83;;;;;;;;;;5090977;28;20196;-34
2022/04/01 03:43:24;;;;;;;3.53;3.10;;;;;;;;;;5091254;28;20204;-35
2022/04/01 03:45:52;;;;;;;4.33;3.80;;;;;;;;;;5085341;28;20225;-30
2022/04/01 03:48:25;;;;;;;3.50;3.07;;;;;;;;;;5080284;28;20216;-30
2022/04/01 03:50:55;;;;;;;3.20;2.90;;;;;;;;;;5091132;28;20239;-32
2022/04/01 03:53:25;;;;;;;3.33;3.03;;;;;;;;;;5091462;28;20208;-30
2022/04/01 03:55:54;;;;;;;3.73;2.77;;;;;;;;;;5085897;28;20232;-32
2022/04/01 03:58:26;;;;;;;2.87;2.53;;;;;;;;;;5080832;28;20193;-30
2022/04/01 04:00:54;;;;;;;3.40;3.10;;;;;;;;;;5090680;28;20224;-29
2022/04/01 04:03:22;;;;;;;3.40;2.83;;;;;;;;;;5087611;28;20205;-34
2022/04/01 04:05:50;;;;;;;2.83;2.60;;;;;;;;;;5089479;28;20224;-28
2022/04/01 04:08:19;;;;;;;3.47;3.17;;;;;;;;;;5090615;28;20283;-33
2022/04/01 04:10:47;;;;;;;2.93;2.63;;;;;;;;;;5085248;28;20237;-33
2022/04/01 04:13:16;;;;;;;3.30;3.00;;;;;;;;;;5083444;28;20200;-30
2022/04/01 04:15:50;;;;;;;2.80;2.60;;;;;;;;;;5089795;28;20271;-34
2022/04/01 04:18:18;;;;;;;3.57;2.87;;;;;;;;;;5090753;28;20245;-30
2022/04/01 04:20:51;;;;;;;6.27;3.67;;;;;;;;;;5078960;28;20201;-30
2022/04/01 04:23:21;;;;;;;3.03;2.73;;;;;;;;;;5089900;28;20207;-32
2022/04/01 04:26:01;;;;;;;4.60;2.90;;;;;;;;;;5090214;28;20252;-30
2022/04/01 04:28:31;;;;;;;3.07;2.57;;;;;;;;;;5085535;28;20230;-32
2022/04/01 04:31:04;;;;;;;2.40;2.20;;;;;;;;;;5085272;28;20230;-33
2022/04/01 04:33:31;;;;;;;2.80;2.60;;;;;;;;;;5087198;28;20201;-34
2022/04/01 04:36:04;;;;;;;2.60;2.40;;;;;;;;;;5082234;28;20232;-31
2022/04/01 04:38:35;;;;;;;2.77;2.40;;;;;;;;;;5076983;28;20246;-33
2022/04/01 04:41:04;;;;;;;2.83;2.53;;;;;;;;;;5090192;28;20230;-32
2022/04/01 04:43:32;;;;;;;2.67;2.47;;;;;;;;;;5090154;28;20266;-33
2022/04/01 04:46:00;;;;;;;2.53;2.33;;;;;;;;;;5086638;28;20238;-35
2022/04/01 04:48:28;;;;;;;2.60;2.40;;;;;;;;;;5088290;28;20259;-31
2022/04/01 04:50:58;;;;;;;2.43;2.23;;;;;;;;;;5089855;28;20204;-34
2022/04/01 04:53:29;;;;;;;2.20;2.00;;;;;;;;;;5075456;28;20639;-29
2022/04/01 04:55:56;;;;;;;2.60;2.40;;;;;;;;;;5084923;28;20224;-31
2022/04/01 04:58:24;;;;;;;2.87;2.47;;;;;;;;;;5090082;28;20193;-35
2022/04/01 05:00:55;;;;;;;2.83;2.60;;;;;;;;;;5090225;28;20211;-33
2022/04/01 05:03:36;;;;;;;2.80;2.53;;;;;;;;;;5079522;28;20197;-30
2022/04/01 05:06:03;;;;;;;3.63;2.20;;;;;;;;;;5089249;28;20213;-32
2022/04/01 05:08:38;;;;;;;2.60;2.40;;;;;;;;;;5090147;28;20216;-33
2022/04/01 05:11:07;;;;;;;2.17;2.00;;;;;;;;;;5083027;28;20230;-32
2022/04/01 05:13:38;;;;;;;2.57;2.30;;;;;;;;;;5083173;28;20210;-34
2022/04/01 05:16:07;;;;;;;2.50;2.30;;;;;;;;;;5089577;28;20240;-32
2022/04/01 05:18:41;;;;;;;2.40;2.20;;;;;;;;;;5090510;28;20200;-32
2022/04/01 05:21:18;;;;;;;2.20;2.10;;;;;;;;;;5083466;28;20262;-34
2022/04/01 05:23:54;;;;;;;3.43;2.60;;;;;;;;;;5085143;28;20212;-33
2022/04/01 05:26:25;;;;;;;3.00;2.70;;;;;;;;;;5093625;28;20314;-30
2022/04/01 05:28:54;;;;;;;2.20;2.00;;;;;;;;;;5091284;28;20231;-35
2022/04/01 05:31:28;;;;;;;2.83;1.97;;;;;;;;;;5074107;28;20259;-29
2022/04/01 05:34:00;;;;;;;2.40;2.20;;;;;;;;;;5083046;28;20209;-32
2022/04/01 05:36:27;;;;;;;2.47;2.27;;;;;;;;;;5090236;28;20316;-32
2022/04/01 05:38:55;;;;;;;2.30;2.10;;;;;;;;;;5096454;28;20196;-31
2022/04/01 05:41:22;;;;;;;2.50;2.00;;;;;;;;;;5096155;28;20246;-29
2022/04/01 05:43:50;;;;;;;1.97;1.80;;;;;;;;;;5091795;28;20212;-35
2022/04/01 05:46:17;;;;;;;5.73;4.30;;;;;;;;;;5089288;28;20220;-36
2022/04/01 05:48:45;;;;;;;1.97;1.87;;;;;;;;;;5096537;28;20256;-31
2022/04/01 05:51:14;;;;;;;1.90;1.80;;;;;;;;;;5091067;28;20300;-35
2022/04/01 05:53:44;;;;;;;2.13;2.00;;;;;;;;;;5091607;28;20260;-30
2022/04/01 05:56:11;;;;;;;2.57;1.83;;;;;;;;;;5090429;28;20276;-36
2022/04/01 05:58:38;;;;;;;2.07;1.87;;;;;;;;;;5088006;28;20201;-38
2022/04/01 06:01:10;;;;;;;1.97;1.77;;;;;;;;;;5096067;28;20786;-38
2022/04/01 06:03:46;;;;;;;2.17;1.97;;;;;;;;;;5095261;28;20228;-34
2022/04/01 06:06:21;;;;;;;1.87;1.70;;;;;;;;;;5089044;28;20231;-35
2022/04/01 06:08:55;;;;;;;1.90;1.80;;;;;;;;;;5086639;28;20216;-32
2022/04/01 06:11:28;;;;;;;2.20;2.00;;;;;;;;;;5095965;28;20274;-35
2022/04/01 06:13:59;;;;;;;1.83;1.70;;;;;;;;;;5095471;28;20212;-32
2022/04/01 06:16:33;;;;;;;4.30;3.07;;;;;;;;;;5086140;28;20242;-35
2022/04/01 06:19:06;;;;;;;10.97;7.13;;;;;;;;;;5094433;28;20244;-36
2022/04/01 06:21:39;;;;;;;2.40;2.17;;;;;;;;;;5095152;28;20264;-35
2022/04/01 06:24:10;;;;;;;1.83;1.60;;;;;;;;;;5095166;28;20188;-39
2022/04/01 06:26:41;;;;;;;1.73;1.63;;;;;;;;;;5079919;28;20220;-34
2022/04/01 06:29:14;;;;;;;2.00;1.90;;;;;;;;;;5094699;28;20270;-31
2022/04/01 06:31:43;;;;;;;2.33;1.73;;;;;;;;;;5094790;28;20266;-38
2022/04/01 06:34:15;;;;;;;1.77;1.67;;;;;;;;;;5081536;28;20200;-38
2022/04/01 06:36:47;;;;;;;2.30;2.10;;;;;;;;;;5094775;28;20228;-33
2022/04/01 06:39:18;;;;;;;2.13;1.93;;;;;;;;;;5074489;28;20266;-38
2022/04/01 06:41:48;;;;;;;2.00;1.73;;;;;;;;;;5073672;28;20201;-30
2022/04/01 06:44:15;;;;;;;2.23;2.03;;;;;;;;;;5089486;28;20576;-34
2022/04/01 06:46:42;;;;;;;3.70;3.40;;;;;;;;;;5094647;28;20217;-29
2022/04/01 06:49:10;;;;;;;2.00;1.80;;;;;;;;;;5094994;28;20220;-31
2022/04/01 06:51:38;;;;;;;2.20;2.00;;;;;;;;;;5083128;28;20296;-29
2022/04/01 06:54:07;;;;;;;2.47;2.27;;;;;;;;;;5093264;28;20208;-32
2022/04/01 06:56:34;;;;;;;2.07;1.87;;;;;;;;;;5094316;28;20338;-32
2022/04/01 06:59:01;;;;;;;2.27;2.13;;;;;;;;;;5094729;28;20205;-32
2022/04/01 07:01:29;;;;;;;2.10;2.00;;;;;;;;;;5082160;28;20201;-32
2022/04/01 07:03:56;;;;;;;2.57;2.37;;;;;;;;;;5091420;28;20265;-30
2022/04/01 07:06:24;;;;;;;2.37;2.17;;;;;;;;;;5092056;28;20224;-31
2022/04/01 07:08:51;;;;;;;2.53;2.00;;;;;;;;;;5092686;28;20270;-30
2022/04/01 07:11:20;;;;;;;2.17;2.00;;;;;;;;;;5080244;28;20224;-30
2022/04/01 07:13:47;;;;;;;2.30;2.10;;;;;;;;;;5093211;28;20204;-34
2022/04/01 07:16:15;;;;;;;2.03;1.90;;;;;;;;;;5093917;28;20289;-29
2022/04/01 07:18:42;;;;;;;2.20;1.90;;;;;;;;;;5093613;28;20222;-33
2022/04/01 07:21:09;;;;;;;5.27;2.93;;;;;;;;;;5083745;28;20204;-32
2022/04/01 07:23:37;;;;;;;1.50;1.40;;;;;;;;;;5092801;28;20228;-32
2022/04/01 07:26:04;;;;;;;1.80;1.70;;;;;;;;;;5094023;28;20220;-33
2022/04/01 07:28:33;;;;;;;1.67;1.57;;;;;;;;;;5090763;28;20213;-32
2022/04/01 07:32:28;;;;;;;2.67;1.77;;;;;;;;;;5088972;28;20228;-34
2022/04/01 07:33:48;;;;;;;1.77;1.67;;;;;;;;;;5092927;28;20199;-32
2022/04/01 07:36:31;;;;;;;2.57;2.37;;;;;;;;;;5089936;28;20237;-31
2022/04/01 07:38:58;;;;;;;2.30;2.10;;;;;;;;;;5078792;28;20193;-33
2022/04/01 07:41:27;;;;;;;1.97;1.87;;;;;;;;;;5093542;28;20201;-29
2022/04/01 07:43:56;;;;;;;2.30;2.10;;;;;;;;;;5091422;28;20237;-35
2022/04/01 07:46:23;;;;;;;1.97;1.83;;;;;;;;;;5090245;28;20257;-31
2022/04/01 07:48:51;;;;;;;3.10;2.40;;;;;;;;;;5086204;28;20288;-33
2022/04/01 07:51:18;;;;;;;2.80;2.50;;;;;;;;;;5093470;28;20216;-34
2022/04/01 07:53:45;;;;;;;2.47;2.27;;;;;;;;;;5093193;28;20727;-32
2022/04/01 07:56:12;;;;;;;3.80;2.83;;;;;;;;;;5088058;28;20223;-31
2022/04/01 07:58:39;;;;;;;2.40;2.20;;;;;;;;;;5091677;28;20205;-36
2022/04/01 08:01:08;;;;;;;2.93;2.73;;;;;;;;;;5093437;28;20259;-32
2022/04/01 08:03:37;;;;;;;3.10;2.80;;;;;;;;;;5088530;28;20201;-34
2022/04/01 08:06:05;;;;;;;2.80;2.60;;;;;;;;;;5079082;28;20228;-36
2022/04/01 08:08:35;;;;;;;3.00;2.70;;;;;;;;;;5093337;28;20262;-34
2022/04/01 08:11:02;;;;;;;3.90;3.17;;;;;;;;;;5093101;28;20217;-30
2022/04/01 08:13:29;;;;;;;4.20;2.60;;;;;;;;;;5079780;28;20231;-33
2022/04/01 08:15:56;;;;;;;2.60;2.40;;;;;;;;;;5091150;28;20225;-33
2022/04/01 08:18:25;;;;;;;2.77;2.57;;;;;;;;;;5093248;28;20205;-30
2022/04/01 08:20:52;;;;;;;2.40;2.20;;;;;;;;;;5093734;28;20212;-30
2022/04/01 08:23:20;;;;;;;2.97;2.77;;;;;;;;;;5085249;28;20288;-30
2022/04/01 08:25:47;;;;;;;2.60;2.40;;;;;;;;;;5092541;28;20224;-32
2022/04/01 08:28:14;;;;;;;2.87;2.67;;;;;;;;;;5093291;28;20212;-29
2022/04/01 08:30:42;;;;;;;2.63;2.43;;;;;;;;;;5085606;28;20225;-34
2022/04/01 08:33:09;;;;;;;2.60;2.40;;;;;;;;;;5085663;28;20204;-31
2022/04/01 08:35:37;;;;;;;2.40;2.20;;;;;;;;;;5091926;28;20224;-30
2022/04/01 08:38:05;;;;;;;2.20;2.10;;;;;;;;;;5092857;28;20264;-35
2022/04/01 08:40:32;;;;;;;4.13;2.20;;;;;;;;;;5087171;28;20253;-33
2022/04/01 08:42:59;;;;;;;2.07;1.90;;;;;;;;;;5089202;28;20297;-33
2022/04/01 08:45:27;;;;;;;2.43;2.27;;;;;;;;;;5091834;28;20284;-35
2022/04/01 08:47:54;;;;;;;2.17;1.97;;;;;;;;;;5088181;28;20205;-30
2022/04/01 08:50:21;;;;;;;2.77;2.50;;;;;;;;;;5092093;28;20248;-30
2022/04/01 08:52:50;;;;;;;2.63;2.40;;;;;;;;;;5092561;28;20542;-31
2022/04/01 08:55:17;;;;;;;2.80;2.50;;;;;;;;;;5092540;28;20232;-30
2022/04/01 08:57:44;;;;;;;3.00;2.80;;;;;;;;;;5082753;28;20201;-29
2022/04/01 09:00:34;;;;;;;3.17;2.57;;;;;;;;;;5092566;28;20205;-33
2022/04/01 09:03:02;;;;;;;3.13;2.83;;;;;;;;;;5092055;28;20197;-31
2022/04/01 09:05:30;;;;;;;2.77;2.57;;;;;;;;;;5092340;28;20256;-35
2022/04/01 09:08:02;;;;;;;2.50;2.30;;;;;;;;;;5084045;28;20208;-35
2022/04/01 09:10:30;;;;;;;2.93;2.73;;;;;;;;;;5092407;28;20217;-33
2022/04/01 09:12:57;;;;;;;2.83;2.50;;;;;;;;;;5090397;28;20435;-29
2022/04/01 09:15:39;;;;;;;3.20;2.90;;;;;;;;;;5086998;28;20263;-35
2022/04/01 09:18:06;;;;;;;2.60;2.40;;;;;;;;;;5082633;28;20206;-36
2022/04/01 09:20:44;;;;;;;3.07;2.80;;;;;;;;;;5091901;28;20243;-29
2022/04/01 09:23:12;;;;;;;5.57;2.80;;;;;;;;;;5092015;28;20260;-32
2022/04/01 09:25:49;;;;;;;3.17;2.87;;;;;;;;;;5079898;28;20331;-31
2022/04/01 09:28:34;;;;;;;3.17;2.90;;;;;;;;;;5084848;28;20196;-33
2022/04/01 09:31:02;;;;;;;4.40;2.73;;;;;;;;;;5091947;28;20299;-31
2022/04/01 09:33:31;;;;;;;2.67;2.47;;;;;;;;;;5089671;28;20265;-36
2022/04/01 09:36:03;;;;;;;2.43;2.23;;;;;;;;;;5087138;28;20278;-31
2022/04/01 09:38:32;;;;;;;2.67;2.47;;;;;;;;;;5092238;28;20185;-30
2022/04/01 09:41:02;;;;;;;2.40;2.20;;;;;;;;;;5092189;28;20201;-35
2022/04/01 09:43:30;;;;;;;2.53;2.33;;;;;;;;;;5081954;28;20201;-31
2022/04/01 09:46:04;;;;;;;2.53;2.33;;;;;;;;;;5091049;28;20232;-35
2022/04/01 09:48:36;;;;;;;2.47;2.20;;;;;;;;;;5092326;28;20199;-33
2022/04/01 09:51:03;;;;;;;2.30;2.20;;;;;;;;;;5087296;28;20298;-40
2022/04/01 09:53:35;;;;;;;2.60;2.40;;;;;;;;;;5091367;28;20224;-34
2022/04/01 09:56:02;;;;;;;2.13;1.93;;;;;;;;;;5091752;28;20224;-35
2022/04/01 09:58:29;;;;;;;1.70;1.60;;;;;;;;;;5091888;28;20242;-38
2022/04/01 10:00:57;;;;;;;2.40;2.20;;;;;;;;;;5083820;28;20228;-34
2022/04/01 10:03:24;;;;;;;2.57;2.37;;;;;;;;;;5091349;28;20203;-29
2022/04/01 10:05:53;;;;;;;2.53;2.10;;;;;;;;;;5091564;28;20224;-32
2022/04/01 10:08:21;;;;;;;2.33;2.13;;;;;;;;;;5087354;28;20205;-33
2022/04/01 10:10:51;;;;;;;2.27;2.07;;;;;;;;;;5084628;28;20217;-31
2022/04/01 10:13:20;;;;;;;2.80;2.03;;;;;;;;;;5095544;28;20208;-34
2022/04/01 10:15:48;;;;;;;2.37;2.17;;;;;;;;;;5095968;28;20252;-36
2022/04/01 10:18:17;;;;;;;2.50;2.30;;;;;;;;;;5083957;28;20237;-33
2022/04/01 10:20:44;;;;;;;2.43;1.90;;;;;;;;;;5090582;28;20196;-36
2022/04/01 10:23:12;;;;;;;2.10;1.90;;;;;;;;;;5095133;28;20258;-32
2022/04/01 10:25:44;;;;;;;1.90;1.80;;;;;;;;;;5095385;28;20229;-38
2022/04/01 10:28:13;;;;;;;5.70;1.97;;;;;;;;;;5085258;28;20608;-38
2022/04/01 10:30:41;;;;;;;1.80;1.70;;;;;;;;;;5094712;28;20255;-33
2022/04/01 10:33:09;;;;;;;2.17;1.80;;;;;;;;;;5094589;28;20208;-38
2022/04/01 10:35:38;;;;;;;1.73;1.63;;;;;;;;;;5086841;28;20233;-36
2022/04/01 10:38:19;;;;;;;1.57;1.47;;;;;;;;;;5079954;28;20200;-30
2022/04/01 10:40:49;;;;;;;2.60;2.40;;;;;;;;;;5095628;28;20282;-36
2022/04/01 10:43:19;;;;;;;1.40;1.30;;;;;;;;;;5093049;28;20262;-37
2022/04/01 10:45:58;;;;;;;1.80;1.70;;;;;;;;;;5086693;28;20216;-36
2022/04/01 10:54:01;;;;;;;2.43;1.80;;;;;;;;;;5086635;28;20241;-35
2022/04/01 10:56:33;;;;;;;1.63;1.53;;;;;;;;;;5089306;28;20220;-35
2022/04/01 10:59:06;;;;;;;1.70;1.60;;;;;;;;;;5094189;28;20296;-34
2022/04/01 11:01:34;;;;;;;1.50;1.40;;;;;;;;;;5088492;28;20197;-37
2022/04/01 11:04:02;;;;;;;1.50;1.40;;;;;;;;;;5082009;28;20208;-34
2022/04/01 11:06:29;;;;;;;1.53;1.43;;;;;;;;;;5092182;28;20222;-32
2022/04/01 11:08:57;;;;;;;1.47;1.37;;;;;;;;;;5091906;28;20265;-34
2022/04/01 11:11:25;;;;;;;1.40;1.30;;;;;;;;;;5082281;28;20288;-34
2022/04/01 11:14:03;;;;;;;1.00;1.00;;;;;;;;;;5093392;28;20207;-29
2022/04/01 11:16:45;;;;;;;1.87;1.13;;;;;;;;;;5094344;28;20254;-30
2022/04/01 11:19:19;;;;;;;1.80;1.50;;;;;;;;;;5094585;28;20223;-38
2022/04/01 11:21:48;;;;;;;1.40;1.30;;;;;;;;;;5089431;28;20266;-34
2022/04/01 11:24:22;;;;;;;1.57;1.47;;;;;;;;;;5086586;28;20201;-33
2022/04/01 11:26:50;;;;;;;1.60;1.50;;;;;;;;;;5093346;28;20220;-33
2022/04/01 11:29:18;;;;;;;1.50;1.40;;;;;;;;;;5086112;28;20209;-31
2022/04/01 11:31:47;;;;;;;2.10;1.37;;;;;;;;;;5081992;28;20309;-30
2022/04/01 11:34:14;;;;;;;1.23;1.10;;;;;;;;;;5093807;28;20264;-34
2022/04/01 11:36:42;;;;;;;1.60;1.50;;;;;;;;;;5093803;28;20233;-36
2022/04/01 11:39:16;;;;;;;1.53;1.43;;;;;;;;;;5090880;28;20207;-34
2022/04/01 11:41:54;;;;;;;1.60;1.50;;;;;;;;;;5093241;28;20235;-31
2022/04/01 11:44:21;;;;;;;3.20;2.77;;;;;;;;;;5086985;28;20199;-36
2022/04/01 11:46:58;;;;;;;2.03;1.47;;;;;;;;;;5092166;28;20285;-30
2022/04/01 11:49:32;;;;;;;1.70;1.60;;;;;;;;;;5072983;28;20208;-30
2022/04/01 11:51:59;;;;;;;1.33;1.23;;;;;;;;;;5092058;28;20212;-37
2022/04/01 11:54:26;;;;;;;1.63;1.53;;;;;;;;;;5093674;28;20204;-26
2022/04/01 11:56:54;;;;;;;1.00;1.00;;;;;;;;;;5077822;28;20217;-28
2022/04/01 11:59:21;;;;;;;1.20;1.20;;;;;;;;;;5087340;28;20200;-39
2022/04/01 12:01:58;;;;;;;1.40;1.30;;;;;;;;;;5093347;28;20201;-31
2022/04/01 12:04:32;;;;;;;1.43;1.33;;;;;;;;;;5093227;28;20256;-34
2022/04/01 12:09:46;;;;;;;1.30;1.20;;;;;;;;;;5089740;28;20219;-35
2022/04/01 12:12:13;;;;;;;1.20;1.10;;;;;;;;;;5093267;28;20263;-32
2022/04/01 12:14:41;;;;;;;1.13;1.07;;;;;;;;;;5088807;28;20204;-33
2022/04/01 12:17:10;;;;;;;3.20;1.27;;;;;;;;;;5089404;28;20246;-32
2022/04/01 12:19:38;;;;;;;1.40;1.30;;;;;;;;;;5093005;28;20239;-35
2022/04/01 12:22:08;;;;;;;1.20;1.10;;;;;;;;;;5093020;28;20273;-35
2022/04/01 12:24:37;;;;;;;1.50;1.27;;;;;;;;;;5083963;28;20209;-34
2022/04/01 12:27:05;;;;;;;1.00;1.00;;;;;;;;;;5083900;28;20214;-33
2022/04/01 12:29:32;;;;;;;1.33;1.23;;;;;;;;;;5092711;28;20239;-31
2022/04/01 12:32:02;;;;;;;1.23;1.13;;;;;;;;;;5092057;28;20255;-32
2022/04/01 12:34:29;;;;;;;1.40;1.30;;;;;;;;;;5083020;28;20205;-31
2022/04/01 12:37:02;;;;;;;1.43;1.33;;;;;;;;;;5091809;28;20242;-34
2022/04/01 12:39:31;;;;;;;0.93;0.93;;;;;;;;;;5092753;28;20228;-30
2022/04/01 12:41:59;;;;;;;2.20;1.33;;;;;;;;;;5083379;28;20218;-33
2022/04/01 12:44:27;;;;;;;1.20;1.10;;;;;;;;;;5092161;28;20201;-36
2022/04/01 12:46:58;;;;;;;1.03;1.03;;;;;;;;;;5092459;28;20231;-34
2022/04/01 12:49:25;;;;;;;1.30;1.20;;;;;;;;;;5088288;28;20253;-32
2022/04/01 12:51:54;;;;;;;1.10;1.10;;;;;;;;;;5081572;28;20303;-28
2022/04/01 12:54:33;;;;;;;1.27;1.17;;;;;;;;;;5090940;28;20224;-31
2022/04/01 12:57:01;;;;;;;1.33;1.23;;;;;;;;;;5092554;28;20208;-32
2022/04/01 12:59:28;;;;;;;1.40;1.30;;;;;;;;;;5082074;28;20293;-35
2022/04/01 13:02:00;;;;;;;1.80;1.70;;;;;;;;;;5082698;28;20288;-31
2022/04/01 13:04:27;;;;;;;2.37;1.67;;;;;;;;;;5092240;28;20215;-32
2022/04/01 13:07:09;;;;;;;1.60;1.50;;;;;;;;;;5092320;28;20291;-35
2022/04/01 13:09:45;;;;;;;2.10;1.90;;;;;;;;;;5080862;28;20201;-31
2022/04/01 13:12:13;;;;;;;1.60;1.50;;;;;;;;;;5083697;28;20204;-41
2022/04/01 13:14:40;;;;;;;1.90;1.80;;;;;;;;;;5092056;28;20211;-39
2022/04/01 13:17:12;;;;;;;2.23;2.03;;;;;;;;;;5080865;28;20254;-35
2022/04/01 13:19:39;;;;;;;1.77;1.67;;;;;;;;;;5087995;28;20349;-37
2022/04/01 13:22:08;;;;;;;2.13;1.93;;;;;;;;;;5091803;28;20201;-32
2022/04/01 13:24:37;;;;;;;1.90;1.80;;;;;;;;;;5088487;28;20212;-37
2022/04/01 13:27:08;;;;;;;2.77;1.83;;;;;;;;;;5093317;28;20213;-31
2022/04/01 13:29:35;;;;;;;1.83;1.73;;;;;;;;;;5100080;28;20279;-32
2022/04/01 13:32:02;;;;;;;1.90;1.80;;;;;;;;;;5106111;28;20260;-34
2022/04/01 13:34:30;;;;;;;1.93;1.83;;;;;;;;;;5084721;28;20221;-33
2022/04/01 13:36:57;;;;;;;1.97;1.87;;;;;;;;;;5082387;28;20204;-33
2022/04/01 13:39:25;;;;;;;2.13;1.93;;;;;;;;;;5091212;28;20249;-34
2022/04/01 13:41:52;;;;;;;2.10;2.00;;;;;;;;;;5092403;28;20232;-34
2022/04/01 13:44:21;;;;;;;2.30;2.10;;;;;;;;;;5084101;28;20205;-34
2022/04/01 13:46:49;;;;;;;2.10;2.00;;;;;;;;;;5092293;28;20451;-35
2022/04/01 13:49:16;;;;;;;2.60;2.27;;;;;;;;;;5096499;28;20232;-39
2022/04/01 13:51:44;;;;;;;2.83;2.63;;;;;;;;;;5086780;28;20213;-33
2022/04/01 13:54:11;;;;;;;2.40;2.20;;;;;;;;;;5087944;28;20265;-34
2022/04/01 13:56:39;;;;;;;2.63;2.27;;;;;;;;;;5082130;28;20223;-29
2022/04/01 13:59:06;;;;;;;2.37;2.17;;;;;;;;;;5075079;28;20209;-34
2022/04/01 14:01:35;;;;;;;2.90;2.70;;;;;;;;;;5080741;28;20207;-35
2022/04/01 14:04:03;;;;;;;2.80;2.60;;;;;;;;;;5095131;28;20232;-35
2022/04/01 14:06:30;;;;;;;3.23;2.97;;;;;;;;;;5096223;28;20232;-31
2022/04/01 14:08:58;;;;;;;3.00;2.80;;;;;;;;;;5092035;28;20201;-33
2022/04/01 14:11:26;;;;;;;3.50;3.20;;;;;;;;;;5091371;28;20220;-36
2022/04/01 14:13:53;;;;;;;3.67;2.90;;;;;;;;;;5089338;28;20208;-38
2022/04/01 14:16:20;;;;;;;2.40;2.20;;;;;;;;;;5083516;28;20224;-32
2022/04/01 14:18:49;;;;;;;3.53;2.63;;;;;;;;;;5078954;28;20205;-36
2022/04/01 14:21:16;;;;;;;3.30;3.00;;;;;;;;;;5089816;28;20193;-32
2022/04/01 14:23:43;;;;;;;3.93;2.77;;;;;;;;;;5092154;28;20216;-34
2022/04/01 14:26:11;;;;;;;3.30;3.00;;;;;;;;;;5093627;28;20235;-31
2022/04/01 14:28:38;;;;;;;3.33;3.13;;;;;;;;;;5083220;28;20299;-36
2022/04/01 14:31:06;;;;;;;3.10;2.90;;;;;;;;;;5086450;28;20232;-41
2022/04/01 14:33:33;;;;;;;5.93;4.43;;;;;;;;;;5093573;28;20201;-36
2022/04/01 14:36:02;;;;;;;3.10;2.80;;;;;;;;;;5089178;28;20305;-37
2022/04/01 14:38:30;;;;;;;4.07;3.67;;;;;;;;;;5086693;28;20196;-38
2022/04/01 14:40:58;;;;;;;3.77;3.47;;;;;;;;;;5092194;28;20240;-31
2022/04/01 14:43:25;;;;;;;4.70;3.70;;;;;;;;;;5090893;28;20200;-38
2022/04/01 14:45:53;;;;;;;7.87;6.07;;;;;;;;;;5091803;28;20265;-38
2022/04/01 14:48:20;;;;;;;4.57;3.03;;;;;;;;;;5091576;28;20196;-33
2022/04/01 14:50:57;;;;;;;3.70;3.20;;;;;;;;;;5094327;28;20200;-34
2022/04/01 14:53:25;;;;;;;3.00;2.80;;;;;;;;;;5088796;28;20212;-37
2022/04/01 14:55:52;;;;;;;3.57;3.27;;;;;;;;;;5086793;28;20266;-33
2022/04/01 14:58:20;;;;;;;3.33;3.03;;;;;;;;;;5094992;28;20201;-34
2022/04/01 15:00:47;;;;;;;3.17;2.87;;;;;;;;;;5090570;28;20287;-34
2022/04/01 15:03:14;;;;;;;4.40;4.10;;;;;;;;;;5085830;28;20231;-32
2022/04/01 15:05:42;;;;;;;4.07;3.67;;;;;;;;;;5088437;28;20224;-32